sensor_id;sensor_type;location;lat;lon;timestamp;P1;durP1;ratioP1;P2;durP2;ratioP2
4089;SDS011;2059;48.538;12.146;2023-03-21T00:04:37;7.03;;;6.43;;
4089;SDS011;2059;48.538;12.146;2023-03-21T00:09:39;7.40;;;6.80;;
4089;SDS011;2059;48.538;12.146;2023-03-21T00:14:41;6.77;;;6.27;;
4089;SDS011;2059;48.538;12.146;2023-03-21T00:19:45;7.50;;;6.77;;
4089;SDS011;2059;48.538;12.146;2023-03-21T00:24:47;7.20;;;6.53;;
4089;SDS011;2059;48.538;12.146;2023-03-21T00:29:51;9.87;;;7.07;;
4089;SDS011;2059;48.538;12.146;2023-03-21T00:34:54;7.13;;;6.50;;
4089;SDS011;2059;48.538;12.146;2023-03-21T00:39:55;7.47;;;6.80;;
4089;SDS011;2059;48.538;12.146;2023-03-21T00:44:57;7.27;;;6.67;;
4089;SDS011;2059;48.538;12.146;2023-03-21T00:50:00;7.83;;;7.03;;
4089;SDS011;2059;48.538;12.146;2023-03-21T01:00:06;7.30;;;6.70;;
4089;SDS011;2059;48.538;12.146;2023-03-21T01:05:11;6.53;;;5.93;;
4089;SDS011;2059;48.538;12.146;2023-03-21T01:10:33;6.90;;;6.30;;
4089;SDS011;2059;48.538;12.146;2023-03-21T01:15:41;10.00;;;6.77;;
4089;SDS011;2059;48.538;12.146;2023-03-21T01:20:46;7.40;;;6.70;;
4089;SDS011;2059;48.538;12.146;2023-03-21T01:25:49;7.37;;;6.23;;
4089;SDS011;2059;48.538;12.146;2023-03-21T01:30:52;6.90;;;6.30;;
4089;SDS011;2059;48.538;12.146;2023-03-21T01:35:55;9.40;;;7.77;;
4089;SDS011;2059;48.538;12.146;2023-03-21T01:40:58;7.87;;;7.17;;
4089;SDS011;2059;48.538;12.146;2023-03-21T01:51:29;8.17;;;6.77;;
4089;SDS011;2059;48.538;12.146;2023-03-21T01:56:34;7.70;;;6.30;;
4089;SDS011;2059;48.538;12.146;2023-03-21T02:01:38;11.40;;;7.33;;
4089;SDS011;2059;48.538;12.146;2023-03-21T02:06:45;7.17;;;6.50;;
4089;SDS011;2059;48.538;12.146;2023-03-21T02:11:49;7.20;;;6.60;;
4089;SDS011;2059;48.538;12.146;2023-03-21T02:16:53;7.03;;;6.43;;
4089;SDS011;2059;48.538;12.146;2023-03-21T02:22:14;9.20;;;8.07;;
4089;SDS011;2059;48.538;12.146;2023-03-21T02:27:25;7.57;;;6.87;;
4089;SDS011;2059;48.538;12.146;2023-03-21T02:32:35;7.10;;;6.50;;
4089;SDS011;2059;48.538;12.146;2023-03-21T02:37:50;7.80;;;7.00;;
4089;SDS011;2059;48.538;12.146;2023-03-21T02:42:58;8.30;;;7.60;;
4089;SDS011;2059;48.538;12.146;2023-03-21T02:48:06;8.00;;;7.30;;
4089;SDS011;2059;48.538;12.146;2023-03-21T02:53:13;7.73;;;7.13;;
4089;SDS011;2059;48.538;12.146;2023-03-21T02:58:18;7.83;;;7.10;;
4089;SDS011;2059;48.538;12.146;2023-03-21T03:03:22;7.37;;;6.77;;
4089;SDS011;2059;48.538;12.146;2023-03-21T03:08:31;7.23;;;6.53;;
4089;SDS011;2059;48.538;12.146;2023-03-21T03:13:46;7.33;;;6.63;;
4089;SDS011;2059;48.538;12.146;2023-03-21T03:19:03;8.10;;;7.40;;
4089;SDS011;2059;48.538;12.146;2023-03-21T03:24:11;7.70;;;6.70;;
4089;SDS011;2059;48.538;12.146;2023-03-21T03:29:19;7.10;;;6.40;;
4089;SDS011;2059;48.538;12.146;2023-03-21T03:34:24;7.10;;;6.57;;
4089;SDS011;2059;48.538;12.146;2023-03-21T03:39:34;8.70;;;7.30;;
4089;SDS011;2059;48.538;12.146;2023-03-21T03:44:39;6.93;;;6.33;;
4089;SDS011;2059;48.538;12.146;2023-03-21T03:49:42;6.83;;;6.33;;
4089;SDS011;2059;48.538;12.146;2023-03-21T03:54:49;7.13;;;6.53;;
4089;SDS011;2059;48.538;12.146;2023-03-21T03:59:52;7.30;;;6.70;;
4089;SDS011;2059;48.538;12.146;2023-03-21T04:04:54;8.37;;;7.53;;
4089;SDS011;2059;48.538;12.146;2023-03-21T04:09:58;7.70;;;7.00;;
4089;SDS011;2059;48.538;12.146;2023-03-21T04:14:59;8.07;;;7.37;;
4089;SDS011;2059;48.538;12.146;2023-03-21T04:20:01;8.37;;;7.67;;
4089;SDS011;2059;48.538;12.146;2023-03-21T04:25:06;7.87;;;7.17;;
4089;SDS011;2059;48.538;12.146;2023-03-21T04:30:09;8.40;;;6.77;;
4089;SDS011;2059;48.538;12.146;2023-03-21T04:35:12;9.90;;;7.20;;
4089;SDS011;2059;48.538;12.146;2023-03-21T04:40:15;7.47;;;6.80;;
4089;SDS011;2059;48.538;12.146;2023-03-21T04:45:17;7.67;;;6.90;;
4089;SDS011;2059;48.538;12.146;2023-03-21T04:50:19;8.23;;;7.33;;
4089;SDS011;2059;48.538;12.146;2023-03-21T04:55:22;7.57;;;6.97;;
4089;SDS011;2059;48.538;12.146;2023-03-21T05:00:27;8.17;;;7.37;;
4089;SDS011;2059;48.538;12.146;2023-03-21T05:05:28;8.43;;;6.93;;
4089;SDS011;2059;48.538;12.146;2023-03-21T05:10:32;7.33;;;6.70;;
4089;SDS011;2059;48.538;12.146;2023-03-21T05:15:33;7.87;;;7.07;;
4089;SDS011;2059;48.538;12.146;2023-03-21T05:20:35;9.50;;;7.40;;
4089;SDS011;2059;48.538;12.146;2023-03-21T05:25:39;6.87;;;6.30;;
4089;SDS011;2059;48.538;12.146;2023-03-21T05:30:40;7.23;;;6.53;;
4089;SDS011;2059;48.538;12.146;2023-03-21T05:35:42;7.77;;;7.07;;
4089;SDS011;2059;48.538;12.146;2023-03-21T05:40:46;7.37;;;6.67;;
4089;SDS011;2059;48.538;12.146;2023-03-21T05:45:48;7.90;;;7.20;;
4089;SDS011;2059;48.538;12.146;2023-03-21T05:50:50;10.30;;;7.07;;
4089;SDS011;2059;48.538;12.146;2023-03-21T05:55:54;8.60;;;7.80;;
4089;SDS011;2059;48.538;12.146;2023-03-21T06:00:56;8.53;;;7.70;;
4089;SDS011;2059;48.538;12.146;2023-03-21T06:05:57;8.37;;;7.67;;
4089;SDS011;2059;48.538;12.146;2023-03-21T06:11:01;9.00;;;7.90;;
4089;SDS011;2059;48.538;12.146;2023-03-21T06:16:03;13.20;;;8.57;;
4089;SDS011;2059;48.538;12.146;2023-03-21T06:21:05;9.70;;;8.40;;
4089;SDS011;2059;48.538;12.146;2023-03-21T06:26:08;9.30;;;8.50;;
4089;SDS011;2059;48.538;12.146;2023-03-21T06:31:10;9.97;;;8.97;;
4089;SDS011;2059;48.538;12.146;2023-03-21T06:36:12;8.47;;;7.77;;
4089;SDS011;2059;48.538;12.146;2023-03-21T06:41:15;8.43;;;7.77;;
4089;SDS011;2059;48.538;12.146;2023-03-21T06:46:17;8.57;;;7.47;;
4089;SDS011;2059;48.538;12.146;2023-03-21T06:51:19;8.37;;;7.67;;
4089;SDS011;2059;48.538;12.146;2023-03-21T06:56:22;8.40;;;7.60;;
4089;SDS011;2059;48.538;12.146;2023-03-21T07:01:24;7.67;;;6.97;;
4089;SDS011;2059;48.538;12.146;2023-03-21T07:06:26;7.93;;;7.13;;
4089;SDS011;2059;48.538;12.146;2023-03-21T07:11:30;7.97;;;7.17;;
4089;SDS011;2059;48.538;12.146;2023-03-21T07:16:32;7.13;;;6.50;;
4089;SDS011;2059;48.538;12.146;2023-03-21T07:21:34;7.80;;;6.70;;
4089;SDS011;2059;48.538;12.146;2023-03-21T07:26:37;7.10;;;6.50;;
4089;SDS011;2059;48.538;12.146;2023-03-21T07:31:39;7.73;;;6.93;;
4089;SDS011;2059;48.538;12.146;2023-03-21T07:36:41;10.43;;;6.97;;
4089;SDS011;2059;48.538;12.146;2023-03-21T07:41:44;7.97;;;7.27;;
4089;SDS011;2059;48.538;12.146;2023-03-21T07:46:46;7.77;;;7.10;;
4089;SDS011;2059;48.538;12.146;2023-03-21T07:51:48;8.00;;;7.30;;
4089;SDS011;2059;48.538;12.146;2023-03-21T07:56:51;8.23;;;6.90;;
4089;SDS011;2059;48.538;12.146;2023-03-21T08:01:53;8.77;;;7.47;;
4089;SDS011;2059;48.538;12.146;2023-03-21T08:06:55;9.20;;;8.30;;
4089;SDS011;2059;48.538;12.146;2023-03-21T08:11:58;9.40;;;8.60;;
4089;SDS011;2059;48.538;12.146;2023-03-21T08:17:00;8.03;;;7.33;;
4089;SDS011;2059;48.538;12.146;2023-03-21T08:22:02;7.80;;;7.10;;
4089;SDS011;2059;48.538;12.146;2023-03-21T08:27:05;9.20;;;8.30;;
4089;SDS011;2059;48.538;12.146;2023-03-21T08:32:07;8.83;;;8.03;;
4089;SDS011;2059;48.538;12.146;2023-03-21T08:37:10;11.47;;;10.33;;
4089;SDS011;2059;48.538;12.146;2023-03-21T08:42:13;8.70;;;8.00;;
4089;SDS011;2059;48.538;12.146;2023-03-21T08:47:15;9.00;;;8.10;;
4089;SDS011;2059;48.538;12.146;2023-03-21T08:57:21;10.70;;;9.80;;
4089;SDS011;2059;48.538;12.146;2023-03-21T09:02:23;10.97;;;10.07;;
4089;SDS011;2059;48.538;12.146;2023-03-21T09:07:24;11.37;;;10.10;;
4089;SDS011;2059;48.538;12.146;2023-03-21T09:12:28;9.67;;;7.87;;
4089;SDS011;2059;48.538;12.146;2023-03-21T09:17:30;8.33;;;7.57;;
4089;SDS011;2059;48.538;12.146;2023-03-21T09:22:31;8.40;;;7.60;;
4089;SDS011;2059;48.538;12.146;2023-03-21T09:27:35;9.37;;;7.97;;
4089;SDS011;2059;48.538;12.146;2023-03-21T09:32:37;9.17;;;8.37;;
4089;SDS011;2059;48.538;12.146;2023-03-21T09:37:39;7.97;;;7.27;;
4089;SDS011;2059;48.538;12.146;2023-03-21T09:42:44;7.07;;;6.47;;
4089;SDS011;2059;48.538;12.146;2023-03-21T09:47:53;8.50;;;7.80;;
4089;SDS011;2059;48.538;12.146;2023-03-21T09:52:56;7.73;;;6.87;;
4089;SDS011;2059;48.538;12.146;2023-03-21T09:58:06;8.23;;;7.50;;
4089;SDS011;2059;48.538;12.146;2023-03-21T10:03:28;7.73;;;7.13;;
4089;SDS011;2059;48.538;12.146;2023-03-21T10:08:34;8.13;;;7.43;;
4089;SDS011;2059;48.538;12.146;2023-03-21T10:13:42;11.43;;;9.27;;
4089;SDS011;2059;48.538;12.146;2023-03-21T10:18:49;8.47;;;7.87;;
4089;SDS011;2059;48.538;12.146;2023-03-21T10:23:51;9.47;;;8.57;;
4089;SDS011;2059;48.538;12.146;2023-03-21T10:28:59;8.90;;;8.20;;
4089;SDS011;2059;48.538;12.146;2023-03-21T10:34:04;8.40;;;7.63;;
4089;SDS011;2059;48.538;12.146;2023-03-21T10:39:18;9.20;;;8.47;;
4089;SDS011;2059;48.538;12.146;2023-03-21T10:44:29;8.30;;;7.70;;
4089;SDS011;2059;48.538;12.146;2023-03-21T10:49:32;8.40;;;7.80;;
4089;SDS011;2059;48.538;12.146;2023-03-21T10:54:36;8.47;;;7.87;;
4089;SDS011;2059;48.538;12.146;2023-03-21T10:59:39;9.27;;;8.63;;
4089;SDS011;2059;48.538;12.146;2023-03-21T11:04:44;9.17;;;8.47;;
4089;SDS011;2059;48.538;12.146;2023-03-21T11:09:48;10.00;;;9.20;;
4089;SDS011;2059;48.538;12.146;2023-03-21T11:14:54;9.13;;;8.33;;
4089;SDS011;2059;48.538;12.146;2023-03-21T11:19:57;8.60;;;8.00;;
4089;SDS011;2059;48.538;12.146;2023-03-21T11:25:00;9.50;;;8.80;;
4089;SDS011;2059;48.538;12.146;2023-03-21T11:30:18;10.37;;;9.57;;
4089;SDS011;2059;48.538;12.146;2023-03-21T11:35:23;10.27;;;9.40;;
4089;SDS011;2059;48.538;12.146;2023-03-21T11:40:29;10.20;;;9.40;;
4089;SDS011;2059;48.538;12.146;2023-03-21T11:45:34;10.93;;;10.03;;
4089;SDS011;2059;48.538;12.146;2023-03-21T11:50:38;10.70;;;9.57;;
4089;SDS011;2059;48.538;12.146;2023-03-21T11:55:48;11.00;;;10.10;;
4089;SDS011;2059;48.538;12.146;2023-03-21T12:01:04;10.97;;;10.10;;
4089;SDS011;2059;48.538;12.146;2023-03-21T12:06:16;10.70;;;9.90;;
4089;SDS011;2059;48.538;12.146;2023-03-21T12:11:24;12.40;;;9.13;;
4089;SDS011;2059;48.538;12.146;2023-03-21T12:16:41;10.07;;;9.37;;
4089;SDS011;2059;48.538;12.146;2023-03-21T12:21:57;9.60;;;8.90;;
4089;SDS011;2059;48.538;12.146;2023-03-21T12:27:07;10.17;;;9.37;;
4089;SDS011;2059;48.538;12.146;2023-03-21T12:32:20;10.47;;;9.77;;
4089;SDS011;2059;48.538;12.146;2023-03-21T12:37:33;9.80;;;9.10;;
4089;SDS011;2059;48.538;12.146;2023-03-21T12:42:53;10.23;;;9.53;;
4089;SDS011;2059;48.538;12.146;2023-03-21T12:48:12;9.20;;;8.40;;
4089;SDS011;2059;48.538;12.146;2023-03-21T12:53:24;9.50;;;8.60;;
4089;SDS011;2059;48.538;12.146;2023-03-21T12:58:38;10.90;;;10.10;;
4089;SDS011;2059;48.538;12.146;2023-03-21T13:03:47;10.83;;;9.93;;
4089;SDS011;2059;48.538;12.146;2023-03-21T13:08:55;11.07;;;10.17;;
4089;SDS011;2059;48.538;12.146;2023-03-21T13:14:03;10.50;;;9.80;;
4089;SDS011;2059;48.538;12.146;2023-03-21T13:19:12;11.40;;;10.60;;
4089;SDS011;2059;48.538;12.146;2023-03-21T13:24:26;10.87;;;10.10;;
4089;SDS011;2059;48.538;12.146;2023-03-21T13:29:32;9.60;;;8.83;;
4089;SDS011;2059;48.538;12.146;2023-03-21T13:34:44;9.60;;;8.90;;
4089;SDS011;2059;48.538;12.146;2023-03-21T13:39:53;10.30;;;9.60;;
4089;SDS011;2059;48.538;12.146;2023-03-21T13:45:04;9.80;;;9.00;;
4089;SDS011;2059;48.538;12.146;2023-03-21T13:50:24;9.77;;;9.07;;
4089;SDS011;2059;48.538;12.146;2023-03-21T13:55:29;10.20;;;9.43;;
4089;SDS011;2059;48.538;12.146;2023-03-21T14:00:37;10.47;;;9.67;;
4089;SDS011;2059;48.538;12.146;2023-03-21T14:05:42;10.47;;;9.77;;
4089;SDS011;2059;48.538;12.146;2023-03-21T14:10:52;10.40;;;9.60;;
4089;SDS011;2059;48.538;12.146;2023-03-21T14:15:58;11.37;;;10.33;;
4089;SDS011;2059;48.538;12.146;2023-03-21T14:21:12;10.40;;;9.60;;
4089;SDS011;2059;48.538;12.146;2023-03-21T14:26:19;10.00;;;9.30;;
4089;SDS011;2059;48.538;12.146;2023-03-21T14:31:21;12.10;;;10.90;;
4089;SDS011;2059;48.538;12.146;2023-03-21T14:36:26;11.63;;;10.50;;
4089;SDS011;2059;48.538;12.146;2023-03-21T14:41:30;10.57;;;9.67;;
4089;SDS011;2059;48.538;12.146;2023-03-21T14:46:33;10.03;;;9.33;;
4089;SDS011;2059;48.538;12.146;2023-03-21T14:51:36;9.67;;;9.03;;
4089;SDS011;2059;48.538;12.146;2023-03-21T14:56:41;10.00;;;9.10;;
4089;SDS011;2059;48.538;12.146;2023-03-21T15:01:47;9.67;;;8.97;;
4089;SDS011;2059;48.538;12.146;2023-03-21T15:06:53;9.77;;;9.07;;
4089;SDS011;2059;48.538;12.146;2023-03-21T15:11:56;9.03;;;8.43;;
4089;SDS011;2059;48.538;12.146;2023-03-21T15:17:08;9.50;;;8.80;;
4089;SDS011;2059;48.538;12.146;2023-03-21T15:22:29;8.70;;;8.10;;
4089;SDS011;2059;48.538;12.146;2023-03-21T15:27:34;8.90;;;8.30;;
4089;SDS011;2059;48.538;12.146;2023-03-21T15:32:38;9.27;;;8.57;;
4089;SDS011;2059;48.538;12.146;2023-03-21T15:37:41;8.80;;;8.20;;
4089;SDS011;2059;48.538;12.146;2023-03-21T15:42:43;10.47;;;9.70;;
4089;SDS011;2059;48.538;12.146;2023-03-21T15:47:52;9.10;;;8.50;;
4089;SDS011;2059;48.538;12.146;2023-03-21T15:53:02;8.47;;;7.87;;
4089;SDS011;2059;48.538;12.146;2023-03-21T15:58:07;8.00;;;7.50;;
4089;SDS011;2059;48.538;12.146;2023-03-21T16:03:17;8.10;;;7.60;;
4089;SDS011;2059;48.538;12.146;2023-03-21T16:08:25;8.53;;;7.93;;
4089;SDS011;2059;48.538;12.146;2023-03-21T16:13:28;8.63;;;7.90;;
4089;SDS011;2059;48.538;12.146;2023-03-21T16:18:30;8.50;;;8.00;;
4089;SDS011;2059;48.538;12.146;2023-03-21T16:23:33;9.67;;;8.90;;
4089;SDS011;2059;48.538;12.146;2023-03-21T16:28:35;9.20;;;8.40;;
4089;SDS011;2059;48.538;12.146;2023-03-21T16:33:37;8.23;;;7.63;;
4089;SDS011;2059;48.538;12.146;2023-03-21T16:38:41;8.33;;;7.73;;
4089;SDS011;2059;48.538;12.146;2023-03-21T16:43:43;8.90;;;8.20;;
4089;SDS011;2059;48.538;12.146;2023-03-21T16:48:46;9.80;;;8.53;;
4089;SDS011;2059;48.538;12.146;2023-03-21T16:53:50;9.77;;;8.90;;
4089;SDS011;2059;48.538;12.146;2023-03-21T16:58:53;10.20;;;9.40;;
4089;SDS011;2059;48.538;12.146;2023-03-21T17:03:56;10.83;;;9.90;;
4089;SDS011;2059;48.538;12.146;2023-03-21T17:09:00;11.00;;;9.90;;
4089;SDS011;2059;48.538;12.146;2023-03-21T17:14:03;12.77;;;11.03;;
4089;SDS011;2059;48.538;12.146;2023-03-21T17:19:08;10.23;;;9.23;;
4089;SDS011;2059;48.538;12.146;2023-03-21T17:24:16;9.20;;;8.50;;
4089;SDS011;2059;48.538;12.146;2023-03-21T17:29:18;9.50;;;8.80;;
4089;SDS011;2059;48.538;12.146;2023-03-21T17:34:20;9.30;;;8.63;;
4089;SDS011;2059;48.538;12.146;2023-03-21T17:39:24;9.00;;;8.30;;
4089;SDS011;2059;48.538;12.146;2023-03-21T17:44:27;9.73;;;8.57;;
4089;SDS011;2059;48.538;12.146;2023-03-21T17:49:29;8.30;;;7.60;;
4089;SDS011;2059;48.538;12.146;2023-03-21T17:54:33;8.23;;;7.53;;
4089;SDS011;2059;48.538;12.146;2023-03-21T17:59:35;8.17;;;7.53;;
4089;SDS011;2059;48.538;12.146;2023-03-21T18:04:36;9.53;;;8.70;;
4089;SDS011;2059;48.538;12.146;2023-03-21T18:09:40;9.20;;;8.40;;
4089;SDS011;2059;48.538;12.146;2023-03-21T18:14:43;10.20;;;9.20;;
4089;SDS011;2059;48.538;12.146;2023-03-21T18:19:45;10.27;;;9.33;;
4089;SDS011;2059;48.538;12.146;2023-03-21T18:24:49;12.27;;;10.93;;
4089;SDS011;2059;48.538;12.146;2023-03-21T18:29:50;9.30;;;8.30;;
4089;SDS011;2059;48.538;12.146;2023-03-21T18:34:53;9.47;;;7.90;;
4089;SDS011;2059;48.538;12.146;2023-03-21T18:39:57;13.13;;;7.83;;
4089;SDS011;2059;48.538;12.146;2023-03-21T18:45:00;8.93;;;8.03;;
4089;SDS011;2059;48.538;12.146;2023-03-21T18:50:03;11.77;;;8.10;;
4089;SDS011;2059;48.538;12.146;2023-03-21T18:55:07;12.20;;;10.13;;
4089;SDS011;2059;48.538;12.146;2023-03-21T19:00:11;12.03;;;8.60;;
4089;SDS011;2059;48.538;12.146;2023-03-21T19:05:17;22.90;;;16.77;;
4089;SDS011;2059;48.538;12.146;2023-03-21T19:10:22;14.57;;;12.73;;
4089;SDS011;2059;48.538;12.146;2023-03-21T19:15:24;17.30;;;11.80;;
4089;SDS011;2059;48.538;12.146;2023-03-21T19:20:26;15.17;;;11.50;;
4089;SDS011;2059;48.538;12.146;2023-03-21T19:25:29;12.57;;;11.33;;
4089;SDS011;2059;48.538;12.146;2023-03-21T19:30:31;13.03;;;10.57;;
4089;SDS011;2059;48.538;12.146;2023-03-21T19:35:33;17.93;;;15.50;;
4089;SDS011;2059;48.538;12.146;2023-03-21T19:40:40;19.43;;;13.17;;
4089;SDS011;2059;48.538;12.146;2023-03-21T19:45:45;16.43;;;13.73;;
4089;SDS011;2059;48.538;12.146;2023-03-21T19:50:47;20.10;;;15.50;;
4089;SDS011;2059;48.538;12.146;2023-03-21T19:55:50;20.63;;;16.07;;
4089;SDS011;2059;48.538;12.146;2023-03-21T20:00:52;17.27;;;13.57;;
4089;SDS011;2059;48.538;12.146;2023-03-21T20:05:59;15.17;;;13.23;;
4089;SDS011;2059;48.538;12.146;2023-03-21T20:11:04;13.50;;;10.60;;
4089;SDS011;2059;48.538;12.146;2023-03-21T20:16:06;13.10;;;10.87;;
4089;SDS011;2059;48.538;12.146;2023-03-21T20:21:08;11.73;;;10.53;;
4089;SDS011;2059;48.538;12.146;2023-03-21T20:26:11;12.80;;;11.70;;
4089;SDS011;2059;48.538;12.146;2023-03-21T20:31:14;12.10;;;10.90;;
4089;SDS011;2059;48.538;12.146;2023-03-21T20:36:15;40.57;;;25.03;;
4089;SDS011;2059;48.538;12.146;2023-03-21T20:41:18;12.43;;;11.13;;
4089;SDS011;2059;48.538;12.146;2023-03-21T20:46:20;14.37;;;12.13;;
4089;SDS011;2059;48.538;12.146;2023-03-21T20:51:22;14.93;;;11.53;;
4089;SDS011;2059;48.538;12.146;2023-03-21T20:56:26;14.30;;;12.13;;
4089;SDS011;2059;48.538;12.146;2023-03-21T21:01:29;14.80;;;10.77;;
4089;SDS011;2059;48.538;12.146;2023-03-21T21:06:31;16.80;;;11.30;;
4089;SDS011;2059;48.538;12.146;2023-03-21T21:11:34;11.77;;;10.57;;
4089;SDS011;2059;48.538;12.146;2023-03-21T21:16:37;19.13;;;11.80;;
4089;SDS011;2059;48.538;12.146;2023-03-21T21:21:38;14.97;;;11.57;;
4089;SDS011;2059;48.538;12.146;2023-03-21T21:26:41;18.10;;;12.07;;
4089;SDS011;2059;48.538;12.146;2023-03-21T21:31:45;17.37;;;12.27;;
4089;SDS011;2059;48.538;12.146;2023-03-21T21:36:49;14.47;;;12.40;;
4089;SDS011;2059;48.538;12.146;2023-03-21T21:41:52;14.70;;;13.20;;
4089;SDS011;2059;48.538;12.146;2023-03-21T21:46:54;15.03;;;12.93;;
4089;SDS011;2059;48.538;12.146;2023-03-21T21:51:56;14.37;;;12.30;;
4089;SDS011;2059;48.538;12.146;2023-03-21T21:57:00;14.73;;;13.13;;
4089;SDS011;2059;48.538;12.146;2023-03-21T22:02:01;24.80;;;16.07;;
4089;SDS011;2059;48.538;12.146;2023-03-21T22:07:03;54.33;;;24.13;;
4089;SDS011;2059;48.538;12.146;2023-03-21T22:12:14;66.47;;;30.60;;
4089;SDS011;2059;48.538;12.146;2023-03-21T22:17:16;28.30;;;16.57;;
4089;SDS011;2059;48.538;12.146;2023-03-21T22:22:17;27.17;;;18.87;;
4089;SDS011;2059;48.538;12.146;2023-03-21T22:27:21;30.27;;;20.33;;
4089;SDS011;2059;48.538;12.146;2023-03-21T22:32:22;20.20;;;13.20;;
4089;SDS011;2059;48.538;12.146;2023-03-21T22:37:24;13.77;;;11.37;;
4089;SDS011;2059;48.538;12.146;2023-03-21T22:42:28;16.60;;;11.63;;
4089;SDS011;2059;48.538;12.146;2023-03-21T22:47:30;14.53;;;11.37;;
4089;SDS011;2059;48.538;12.146;2023-03-21T22:52:32;14.70;;;11.00;;
4089;SDS011;2059;48.538;12.146;2023-03-21T22:57:35;15.00;;;10.20;;
4089;SDS011;2059;48.538;12.146;2023-03-21T23:02:37;15.33;;;12.03;;
4089;SDS011;2059;48.538;12.146;2023-03-21T23:07:39;15.60;;;12.40;;
4089;SDS011;2059;48.538;12.146;2023-03-21T23:12:42;22.57;;;16.33;;
4089;SDS011;2059;48.538;12.146;2023-03-21T23:17:44;16.43;;;13.63;;
4089;SDS011;2059;48.538;12.146;2023-03-21T23:22:47;14.47;;;11.43;;
4089;SDS011;2059;48.538;12.146;2023-03-21T23:27:50;14.80;;;12.33;;
4089;SDS011;2059;48.538;12.146;2023-03-21T23:32:51;14.30;;;12.67;;
4089;SDS011;2059;48.538;12.146;2023-03-21T23:37:53;14.53;;;12.10;;
4089;SDS011;2059;48.538;12.146;2023-03-21T23:42:56;14.20;;;11.97;;
4089;SDS011;2059;48.538;12.146;2023-03-21T23:47:58;14.27;;;12.40;;
4089;SDS011;2059;48.538;12.146;2023-03-21T23:53:00;14.10;;;12.00;;
4089;SDS011;2059;48.538;12.146;2023-03-21T23:58:03;15.27;;;13.37;;
